sensor_id;sensor_type;location;lat;lon;timestamp;P1;durP1;ratioP1;P2;durP2;ratioP2
19889;SDS011;10107;51.198;6.824;2024-03-08T00:02:09;25.48;;;14.90;;
19889;SDS011;10107;51.198;6.824;2024-03-08T00:06:13;23.00;;;14.80;;
19889;SDS011;10107;51.198;6.824;2024-03-08T00:10:16;22.35;;;14.73;;
19889;SDS011;10107;51.198;6.824;2024-03-08T00:14:18;23.50;;;14.65;;
19889;SDS011;10107;51.198;6.824;2024-03-08T00:18:20;24.33;;;15.10;;
19889;SDS011;10107;51.198;6.824;2024-03-08T00:22:24;24.90;;;15.45;;
19889;SDS011;10107;51.198;6.824;2024-03-08T00:26:26;24.73;;;15.13;;
19889;SDS011;10107;51.198;6.824;2024-03-08T00:30:29;28.08;;;16.42;;
19889;SDS011;10107;51.198;6.824;2024-03-08T00:34:31;24.38;;;15.38;;
19889;SDS011;10107;51.198;6.824;2024-03-08T00:38:36;25.60;;;15.48;;
19889;SDS011;10107;51.198;6.824;2024-03-08T00:42:38;27.63;;;16.02;;
19889;SDS011;10107;51.198;6.824;2024-03-08T00:46:41;29.30;;;16.98;;
19889;SDS011;10107;51.198;6.824;2024-03-08T00:50:43;25.10;;;15.43;;
19889;SDS011;10107;51.198;6.824;2024-03-08T00:54:47;26.23;;;15.82;;
19889;SDS011;10107;51.198;6.824;2024-03-08T00:58:49;25.35;;;15.18;;
19889;SDS011;10107;51.198;6.824;2024-03-08T01:02:51;25.30;;;15.70;;
19889;SDS011;10107;51.198;6.824;2024-03-08T01:06:53;29.35;;;15.60;;
19889;SDS011;10107;51.198;6.824;2024-03-08T01:10:57;28.98;;;16.45;;
19889;SDS011;10107;51.198;6.824;2024-03-08T01:14:59;25.83;;;15.45;;
19889;SDS011;10107;51.198;6.824;2024-03-08T01:19:02;25.90;;;15.45;;
19889;SDS011;10107;51.198;6.824;2024-03-08T01:23:04;26.03;;;15.80;;
19889;SDS011;10107;51.198;6.824;2024-03-08T01:27:08;26.77;;;15.67;;
19889;SDS011;10107;51.198;6.824;2024-03-08T01:31:10;24.48;;;14.98;;
19889;SDS011;10107;51.198;6.824;2024-03-08T01:35:14;24.58;;;15.68;;
19889;SDS011;10107;51.198;6.824;2024-03-08T01:39:16;28.08;;;15.63;;
19889;SDS011;10107;51.198;6.824;2024-03-08T01:43:19;25.58;;;15.43;;
19889;SDS011;10107;51.198;6.824;2024-03-08T01:47:22;29.63;;;16.77;;
19889;SDS011;10107;51.198;6.824;2024-03-08T01:51:24;27.92;;;16.25;;
19889;SDS011;10107;51.198;6.824;2024-03-08T01:55:26;27.77;;;15.68;;
19889;SDS011;10107;51.198;6.824;2024-03-08T01:59:29;28.15;;;16.25;;
19889;SDS011;10107;51.198;6.824;2024-03-08T02:03:32;27.83;;;16.40;;
19889;SDS011;10107;51.198;6.824;2024-03-08T02:07:35;28.50;;;15.93;;
19889;SDS011;10107;51.198;6.824;2024-03-08T02:11:38;26.00;;;15.18;;
19889;SDS011;10107;51.198;6.824;2024-03-08T02:15:53;28.75;;;16.02;;
19889;SDS011;10107;51.198;6.824;2024-03-08T02:19:56;30.60;;;16.88;;
19889;SDS011;10107;51.198;6.824;2024-03-08T02:24:00;29.87;;;16.20;;
19889;SDS011;10107;51.198;6.824;2024-03-08T02:28:02;26.58;;;15.38;;
19889;SDS011;10107;51.198;6.824;2024-03-08T02:32:05;28.13;;;16.00;;
19889;SDS011;10107;51.198;6.824;2024-03-08T02:36:07;31.40;;;16.83;;
19889;SDS011;10107;51.198;6.824;2024-03-08T02:40:12;28.98;;;16.98;;
19889;SDS011;10107;51.198;6.824;2024-03-08T02:44:17;29.52;;;16.45;;
19889;SDS011;10107;51.198;6.824;2024-03-08T02:48:22;29.42;;;16.70;;
19889;SDS011;10107;51.198;6.824;2024-03-08T02:52:24;30.23;;;17.17;;
19889;SDS011;10107;51.198;6.824;2024-03-08T02:56:27;26.60;;;16.15;;
19889;SDS011;10107;51.198;6.824;2024-03-08T03:00:30;26.17;;;16.02;;
19889;SDS011;10107;51.198;6.824;2024-03-08T03:04:32;27.20;;;16.08;;
19889;SDS011;10107;51.198;6.824;2024-03-08T03:08:34;26.42;;;16.00;;
19889;SDS011;10107;51.198;6.824;2024-03-08T03:12:38;28.70;;;16.80;;
19889;SDS011;10107;51.198;6.824;2024-03-08T03:20:44;28.00;;;16.77;;
19889;SDS011;10107;51.198;6.824;2024-03-08T03:24:46;31.40;;;16.90;;
19889;SDS011;10107;51.198;6.824;2024-03-08T03:28:50;21.98;;;12.68;;
19889;SDS011;10107;51.198;6.824;2024-03-08T03:32:54;28.27;;;15.93;;
19889;SDS011;10107;51.198;6.824;2024-03-08T03:36:59;27.50;;;15.82;;
19889;SDS011;10107;51.198;6.824;2024-03-08T03:41:03;29.25;;;16.42;;
19889;SDS011;10107;51.198;6.824;2024-03-08T03:45:12;28.27;;;16.45;;
19889;SDS011;10107;51.198;6.824;2024-03-08T03:49:14;27.27;;;15.25;;
19889;SDS011;10107;51.198;6.824;2024-03-08T03:53:17;28.43;;;16.20;;
19889;SDS011;10107;51.198;6.824;2024-03-08T03:57:19;26.95;;;15.98;;
19889;SDS011;10107;51.198;6.824;2024-03-08T04:01:24;28.33;;;15.75;;
19889;SDS011;10107;51.198;6.824;2024-03-08T04:05:27;32.92;;;17.35;;
19889;SDS011;10107;51.198;6.824;2024-03-08T04:09:31;30.55;;;16.42;;
19889;SDS011;10107;51.198;6.824;2024-03-08T04:13:33;28.47;;;15.93;;
19889;SDS011;10107;51.198;6.824;2024-03-08T04:17:37;28.47;;;15.43;;
19889;SDS011;10107;51.198;6.824;2024-03-08T04:21:40;28.27;;;15.77;;
19889;SDS011;10107;51.198;6.824;2024-03-08T04:25:42;29.98;;;16.70;;
19889;SDS011;10107;51.198;6.824;2024-03-08T04:29:44;27.52;;;14.90;;
19889;SDS011;10107;51.198;6.824;2024-03-08T04:33:48;31.63;;;16.95;;
19889;SDS011;10107;51.198;6.824;2024-03-08T04:37:50;25.58;;;15.30;;
19889;SDS011;10107;51.198;6.824;2024-03-08T04:41:52;28.92;;;16.25;;
19889;SDS011;10107;51.198;6.824;2024-03-08T04:45:56;29.00;;;16.92;;
19889;SDS011;10107;51.198;6.824;2024-03-08T04:50:00;30.73;;;16.75;;
19889;SDS011;10107;51.198;6.824;2024-03-08T04:54:03;29.50;;;16.60;;
19889;SDS011;10107;51.198;6.824;2024-03-08T04:58:05;34.00;;;19.25;;
19889;SDS011;10107;51.198;6.824;2024-03-08T05:02:07;39.17;;;21.50;;
19889;SDS011;10107;51.198;6.824;2024-03-08T05:06:11;42.92;;;21.20;;
19889;SDS011;10107;51.198;6.824;2024-03-08T05:10:14;39.53;;;20.98;;
19889;SDS011;10107;51.198;6.824;2024-03-08T05:14:17;37.95;;;20.02;;
19889;SDS011;10107;51.198;6.824;2024-03-08T05:18:20;35.38;;;18.70;;
19889;SDS011;10107;51.198;6.824;2024-03-08T05:22:24;35.17;;;18.42;;
19889;SDS011;10107;51.198;6.824;2024-03-08T05:30:27;30.20;;;16.17;;
19889;SDS011;10107;51.198;6.824;2024-03-08T05:34:29;30.67;;;16.65;;
19889;SDS011;10107;51.198;6.824;2024-03-08T05:38:33;30.90;;;16.67;;
19889;SDS011;10107;51.198;6.824;2024-03-08T05:42:35;33.03;;;17.40;;
19889;SDS011;10107;51.198;6.824;2024-03-08T05:46:38;32.08;;;16.55;;
19889;SDS011;10107;51.198;6.824;2024-03-08T05:50:40;22.00;;;11.87;;
19889;SDS011;10107;51.198;6.824;2024-03-08T05:54:46;31.67;;;16.00;;
19889;SDS011;10107;51.198;6.824;2024-03-08T06:02:50;29.35;;;15.55;;
19889;SDS011;10107;51.198;6.824;2024-03-08T06:06:52;30.02;;;16.73;;
19889;SDS011;10107;51.198;6.824;2024-03-08T06:10:57;31.67;;;16.42;;
19889;SDS011;10107;51.198;6.824;2024-03-08T06:15:03;29.85;;;16.55;;
19889;SDS011;10107;51.198;6.824;2024-03-08T06:19:05;35.13;;;17.70;;
19889;SDS011;10107;51.198;6.824;2024-03-08T06:23:09;32.47;;;16.97;;
19889;SDS011;10107;51.198;6.824;2024-03-08T06:31:15;35.42;;;17.30;;
19889;SDS011;10107;51.198;6.824;2024-03-08T06:35:16;29.90;;;16.38;;
19889;SDS011;10107;51.198;6.824;2024-03-08T06:39:20;28.10;;;14.98;;
19889;SDS011;10107;51.198;6.824;2024-03-08T06:43:26;28.83;;;15.77;;
19889;SDS011;10107;51.198;6.824;2024-03-08T06:47:34;30.75;;;17.15;;
19889;SDS011;10107;51.198;6.824;2024-03-08T06:51:35;34.17;;;17.90;;
19889;SDS011;10107;51.198;6.824;2024-03-08T06:55:37;30.98;;;17.60;;
19889;SDS011;10107;51.198;6.824;2024-03-08T06:59:40;29.58;;;16.20;;
19889;SDS011;10107;51.198;6.824;2024-03-08T07:03:42;29.45;;;16.50;;
19889;SDS011;10107;51.198;6.824;2024-03-08T07:07:44;32.22;;;16.67;;
19889;SDS011;10107;51.198;6.824;2024-03-08T07:11:48;30.00;;;16.23;;
19889;SDS011;10107;51.198;6.824;2024-03-08T07:15:56;32.30;;;17.48;;
19889;SDS011;10107;51.198;6.824;2024-03-08T07:20:00;31.73;;;17.40;;
19889;SDS011;10107;51.198;6.824;2024-03-08T07:24:11;30.35;;;17.23;;
19889;SDS011;10107;51.198;6.824;2024-03-08T07:28:33;27.90;;;16.52;;
19889;SDS011;10107;51.198;6.824;2024-03-08T07:32:36;31.48;;;18.20;;
19889;SDS011;10107;51.198;6.824;2024-03-08T07:36:38;29.65;;;16.63;;
19889;SDS011;10107;51.198;6.824;2024-03-08T07:40:40;29.70;;;16.35;;
19889;SDS011;10107;51.198;6.824;2024-03-08T07:44:44;30.35;;;17.27;;
19889;SDS011;10107;51.198;6.824;2024-03-08T07:48:47;28.50;;;17.05;;
19889;SDS011;10107;51.198;6.824;2024-03-08T07:52:49;25.67;;;16.60;;
19889;SDS011;10107;51.198;6.824;2024-03-08T07:56:51;27.50;;;16.67;;
19889;SDS011;10107;51.198;6.824;2024-03-08T08:00:53;28.40;;;15.65;;
19889;SDS011;10107;51.198;6.824;2024-03-08T08:04:56;25.25;;;14.48;;
19889;SDS011;10107;51.198;6.824;2024-03-08T08:08:59;25.33;;;14.60;;
19889;SDS011;10107;51.198;6.824;2024-03-08T08:13:01;23.90;;;13.85;;
19889;SDS011;10107;51.198;6.824;2024-03-08T08:17:04;23.17;;;14.93;;
19889;SDS011;10107;51.198;6.824;2024-03-08T08:21:10;22.40;;;13.60;;
19889;SDS011;10107;51.198;6.824;2024-03-08T08:25:11;20.60;;;13.53;;
19889;SDS011;10107;51.198;6.824;2024-03-08T08:29:13;21.52;;;13.98;;
19889;SDS011;10107;51.198;6.824;2024-03-08T08:33:16;24.65;;;14.68;;
19889;SDS011;10107;51.198;6.824;2024-03-08T08:37:19;22.33;;;14.07;;
19889;SDS011;10107;51.198;6.824;2024-03-08T08:41:20;19.90;;;13.13;;
19889;SDS011;10107;51.198;6.824;2024-03-08T08:45:22;18.25;;;13.10;;
19889;SDS011;10107;51.198;6.824;2024-03-08T08:49:24;20.27;;;12.93;;
19889;SDS011;10107;51.198;6.824;2024-03-08T08:53:27;19.42;;;12.30;;
19889;SDS011;10107;51.198;6.824;2024-03-08T08:57:29;14.15;;;8.68;;
19889;SDS011;10107;51.198;6.824;2024-03-08T09:05:34;19.65;;;12.30;;
19889;SDS011;10107;51.198;6.824;2024-03-08T09:09:37;16.20;;;11.38;;
19889;SDS011;10107;51.198;6.824;2024-03-08T09:13:39;17.73;;;11.83;;
19889;SDS011;10107;51.198;6.824;2024-03-08T09:17:40;18.27;;;11.88;;
19889;SDS011;10107;51.198;6.824;2024-03-08T09:21:43;17.00;;;11.52;;
19889;SDS011;10107;51.198;6.824;2024-03-08T09:25:46;17.67;;;12.32;;
19889;SDS011;10107;51.198;6.824;2024-03-08T09:29:48;13.07;;;8.95;;
19889;SDS011;10107;51.198;6.824;2024-03-08T09:33:49;18.85;;;11.82;;
19889;SDS011;10107;51.198;6.824;2024-03-08T09:37:51;18.15;;;12.45;;
19889;SDS011;10107;51.198;6.824;2024-03-08T09:41:55;16.95;;;12.10;;
19889;SDS011;10107;51.198;6.824;2024-03-08T09:45:57;16.80;;;11.70;;
19889;SDS011;10107;51.198;6.824;2024-03-08T09:49:59;17.83;;;12.18;;
19889;SDS011;10107;51.198;6.824;2024-03-08T09:54:01;17.15;;;12.27;;
19889;SDS011;10107;51.198;6.824;2024-03-08T09:58:06;13.88;;;9.10;;
19889;SDS011;10107;51.198;6.824;2024-03-08T10:02:36;17.48;;;12.27;;
19889;SDS011;10107;51.198;6.824;2024-03-08T10:06:37;16.90;;;11.68;;
19889;SDS011;10107;51.198;6.824;2024-03-08T10:10:39;15.50;;;10.90;;
19889;SDS011;10107;51.198;6.824;2024-03-08T10:14:42;14.50;;;10.30;;
19889;SDS011;10107;51.198;6.824;2024-03-08T10:24:06;16.33;;;11.30;;
19889;SDS011;10107;51.198;6.824;2024-03-08T10:28:13;15.07;;;10.65;;
19889;SDS011;10107;51.198;6.824;2024-03-08T10:32:16;14.68;;;10.73;;
19889;SDS011;10107;51.198;6.824;2024-03-08T10:36:18;14.95;;;10.38;;
19889;SDS011;10107;51.198;6.824;2024-03-08T10:40:20;14.52;;;9.88;;
19889;SDS011;10107;51.198;6.824;2024-03-08T10:44:26;10.02;;;6.97;;
19889;SDS011;10107;51.198;6.824;2024-03-08T10:48:43;12.90;;;9.07;;
19889;SDS011;10107;51.198;6.824;2024-03-08T10:52:46;13.80;;;10.05;;
19889;SDS011;10107;51.198;6.824;2024-03-08T10:56:50;13.50;;;9.52;;
19889;SDS011;10107;51.198;6.824;2024-03-08T11:00:52;12.95;;;9.70;;
19889;SDS011;10107;51.198;6.824;2024-03-08T11:04:57;15.88;;;9.73;;
19889;SDS011;10107;51.198;6.824;2024-03-08T11:08:59;13.40;;;9.38;;
19889;SDS011;10107;51.198;6.824;2024-03-08T11:13:01;13.43;;;9.20;;
19889;SDS011;10107;51.198;6.824;2024-03-08T11:17:03;13.10;;;8.63;;
19889;SDS011;10107;51.198;6.824;2024-03-08T11:21:09;11.40;;;8.77;;
19889;SDS011;10107;51.198;6.824;2024-03-08T11:25:30;10.43;;;8.40;;
19889;SDS011;10107;51.198;6.824;2024-03-08T11:29:34;11.27;;;7.80;;
19889;SDS011;10107;51.198;6.824;2024-03-08T11:33:39;9.90;;;7.32;;
19889;SDS011;10107;51.198;6.824;2024-03-08T11:37:45;10.60;;;7.47;;
19889;SDS011;10107;51.198;6.824;2024-03-08T11:41:48;11.20;;;8.57;;
19889;SDS011;10107;51.198;6.824;2024-03-08T11:45:49;10.57;;;7.93;;
19889;SDS011;10107;51.198;6.824;2024-03-08T11:49:53;11.38;;;7.82;;
19889;SDS011;10107;51.198;6.824;2024-03-08T11:53:56;11.90;;;8.30;;
19889;SDS011;10107;51.198;6.824;2024-03-08T11:58:01;8.43;;;6.20;;
19889;SDS011;10107;51.198;6.824;2024-03-08T12:02:03;12.43;;;8.23;;
19889;SDS011;10107;51.198;6.824;2024-03-08T12:06:06;10.20;;;7.93;;
19889;SDS011;10107;51.198;6.824;2024-03-08T12:10:17;7.97;;;5.70;;
19889;SDS011;10107;51.198;6.824;2024-03-08T12:14:19;11.85;;;7.88;;
19889;SDS011;10107;51.198;6.824;2024-03-08T12:18:22;11.43;;;7.90;;
19889;SDS011;10107;51.198;6.824;2024-03-08T12:22:24;9.40;;;7.53;;
19889;SDS011;10107;51.198;6.824;2024-03-08T12:26:28;10.63;;;7.32;;
19889;SDS011;10107;51.198;6.824;2024-03-08T12:30:32;9.95;;;8.02;;
19889;SDS011;10107;51.198;6.824;2024-03-08T12:34:34;11.35;;;7.80;;
19889;SDS011;10107;51.198;6.824;2024-03-08T12:38:35;12.20;;;8.30;;
19889;SDS011;10107;51.198;6.824;2024-03-08T12:42:39;12.95;;;8.63;;
19889;SDS011;10107;51.198;6.824;2024-03-08T12:46:41;10.33;;;7.80;;
19889;SDS011;10107;51.198;6.824;2024-03-08T12:50:45;10.32;;;7.50;;
19889;SDS011;10107;51.198;6.824;2024-03-08T12:54:48;11.15;;;7.72;;
19889;SDS011;10107;51.198;6.824;2024-03-08T12:58:51;14.52;;;8.90;;
19889;SDS011;10107;51.198;6.824;2024-03-08T13:06:55;12.32;;;8.68;;
19889;SDS011;10107;51.198;6.824;2024-03-08T13:10:57;12.77;;;8.07;;
19889;SDS011;10107;51.198;6.824;2024-03-08T13:15:01;13.98;;;8.50;;
19889;SDS011;10107;51.198;6.824;2024-03-08T13:19:02;12.20;;;8.60;;
19889;SDS011;10107;51.198;6.824;2024-03-08T13:23:04;13.48;;;9.02;;
19889;SDS011;10107;51.198;6.824;2024-03-08T13:31:20;13.13;;;8.15;;
19889;SDS011;10107;51.198;6.824;2024-03-08T13:35:22;11.15;;;7.53;;
19889;SDS011;10107;51.198;6.824;2024-03-08T13:39:28;13.45;;;8.25;;
19889;SDS011;10107;51.198;6.824;2024-03-08T13:43:35;15.70;;;8.50;;
19889;SDS011;10107;51.198;6.824;2024-03-08T13:47:38;12.43;;;8.18;;
19889;SDS011;10107;51.198;6.824;2024-03-08T13:55:42;11.48;;;8.27;;
19889;SDS011;10107;51.198;6.824;2024-03-08T13:59:44;11.52;;;8.23;;
19889;SDS011;10107;51.198;6.824;2024-03-08T14:03:47;10.70;;;8.02;;
19889;SDS011;10107;51.198;6.824;2024-03-08T14:07:48;8.90;;;6.10;;
19889;SDS011;10107;51.198;6.824;2024-03-08T14:11:51;11.20;;;7.80;;
19889;SDS011;10107;51.198;6.824;2024-03-08T14:15:55;12.20;;;8.43;;
19889;SDS011;10107;51.198;6.824;2024-03-08T14:19:58;12.07;;;8.38;;
19889;SDS011;10107;51.198;6.824;2024-03-08T14:24:00;12.20;;;8.30;;
19889;SDS011;10107;51.198;6.824;2024-03-08T14:28:02;12.75;;;8.02;;
19889;SDS011;10107;51.198;6.824;2024-03-08T14:32:07;13.00;;;8.10;;
19889;SDS011;10107;51.198;6.824;2024-03-08T14:36:11;14.27;;;8.67;;
19889;SDS011;10107;51.198;6.824;2024-03-08T14:40:13;14.23;;;9.50;;
19889;SDS011;10107;51.198;6.824;2024-03-08T14:44:15;14.07;;;8.93;;
19889;SDS011;10107;51.198;6.824;2024-03-08T14:48:18;12.60;;;8.88;;
19889;SDS011;10107;51.198;6.824;2024-03-08T14:52:22;14.38;;;9.00;;
19889;SDS011;10107;51.198;6.824;2024-03-08T14:56:29;13.13;;;8.98;;
19889;SDS011;10107;51.198;6.824;2024-03-08T15:00:31;13.75;;;9.13;;
19889;SDS011;10107;51.198;6.824;2024-03-08T15:04:34;16.67;;;9.85;;
19889;SDS011;10107;51.198;6.824;2024-03-08T15:08:37;15.05;;;10.10;;
19889;SDS011;10107;51.198;6.824;2024-03-08T15:16:42;14.88;;;9.73;;
19889;SDS011;10107;51.198;6.824;2024-03-08T15:20:43;15.23;;;9.82;;
19889;SDS011;10107;51.198;6.824;2024-03-08T15:24:48;14.50;;;9.40;;
19889;SDS011;10107;51.198;6.824;2024-03-08T15:28:51;16.60;;;11.07;;
19889;SDS011;10107;51.198;6.824;2024-03-08T15:32:54;15.82;;;10.68;;
19889;SDS011;10107;51.198;6.824;2024-03-08T15:37:00;16.55;;;10.40;;
19889;SDS011;10107;51.198;6.824;2024-03-08T15:41:04;17.15;;;10.70;;
19889;SDS011;10107;51.198;6.824;2024-03-08T15:45:10;16.40;;;10.55;;
19889;SDS011;10107;51.198;6.824;2024-03-08T15:49:12;17.52;;;10.77;;
19889;SDS011;10107;51.198;6.824;2024-03-08T15:53:14;16.92;;;10.88;;
19889;SDS011;10107;51.198;6.824;2024-03-08T15:57:17;15.35;;;10.75;;
19889;SDS011;10107;51.198;6.824;2024-03-08T16:01:21;14.88;;;10.35;;
19889;SDS011;10107;51.198;6.824;2024-03-08T16:05:24;16.30;;;10.50;;
19889;SDS011;10107;51.198;6.824;2024-03-08T16:09:26;15.15;;;10.52;;
19889;SDS011;10107;51.198;6.824;2024-03-08T16:13:32;15.53;;;9.93;;
19889;SDS011;10107;51.198;6.824;2024-03-08T16:17:38;16.75;;;10.65;;
19889;SDS011;10107;51.198;6.824;2024-03-08T16:21:40;17.25;;;11.23;;
19889;SDS011;10107;51.198;6.824;2024-03-08T16:25:44;15.00;;;10.10;;
19889;SDS011;10107;51.198;6.824;2024-03-08T16:29:47;15.48;;;10.43;;
19889;SDS011;10107;51.198;6.824;2024-03-08T16:33:52;17.13;;;10.07;;
19889;SDS011;10107;51.198;6.824;2024-03-08T16:37:54;14.15;;;9.48;;
19889;SDS011;10107;51.198;6.824;2024-03-08T16:41:56;16.33;;;10.18;;
19889;SDS011;10107;51.198;6.824;2024-03-08T16:46:00;16.60;;;9.75;;
19889;SDS011;10107;51.198;6.824;2024-03-08T16:50:03;16.65;;;10.60;;
19889;SDS011;10107;51.198;6.824;2024-03-08T16:54:07;15.40;;;9.90;;
19889;SDS011;10107;51.198;6.824;2024-03-08T16:58:09;15.90;;;10.02;;
19889;SDS011;10107;51.198;6.824;2024-03-08T17:02:15;18.05;;;10.80;;
19889;SDS011;10107;51.198;6.824;2024-03-08T17:06:17;13.80;;;7.50;;
19889;SDS011;10107;51.198;6.824;2024-03-08T17:10:21;14.60;;;9.40;;
19889;SDS011;10107;51.198;6.824;2024-03-08T17:18:30;16.05;;;9.73;;
19889;SDS011;10107;51.198;6.824;2024-03-08T17:22:32;15.98;;;9.85;;
19889;SDS011;10107;51.198;6.824;2024-03-08T17:26:34;14.02;;;8.93;;
19889;SDS011;10107;51.198;6.824;2024-03-08T17:30:36;13.85;;;9.23;;
19889;SDS011;10107;51.198;6.824;2024-03-08T17:34:41;14.48;;;9.27;;
19889;SDS011;10107;51.198;6.824;2024-03-08T17:38:43;14.60;;;9.10;;
19889;SDS011;10107;51.198;6.824;2024-03-08T17:42:46;14.87;;;10.03;;
19889;SDS011;10107;51.198;6.824;2024-03-08T17:46:48;16.45;;;10.15;;
19889;SDS011;10107;51.198;6.824;2024-03-08T17:50:51;16.80;;;10.25;;
19889;SDS011;10107;51.198;6.824;2024-03-08T17:54:54;14.95;;;9.20;;
19889;SDS011;10107;51.198;6.824;2024-03-08T17:58:55;16.05;;;9.82;;
19889;SDS011;10107;51.198;6.824;2024-03-08T18:02:58;17.42;;;10.05;;
19889;SDS011;10107;51.198;6.824;2024-03-08T18:07:02;14.88;;;9.63;;
19889;SDS011;10107;51.198;6.824;2024-03-08T18:11:07;16.83;;;10.27;;
19889;SDS011;10107;51.198;6.824;2024-03-08T18:15:08;18.13;;;10.48;;
19889;SDS011;10107;51.198;6.824;2024-03-08T18:19:10;17.98;;;10.20;;
19889;SDS011;10107;51.198;6.824;2024-03-08T18:23:20;18.02;;;10.95;;
19889;SDS011;10107;51.198;6.824;2024-03-08T18:27:22;18.10;;;10.80;;
19889;SDS011;10107;51.198;6.824;2024-03-08T18:31:25;17.97;;;11.80;;
19889;SDS011;10107;51.198;6.824;2024-03-08T18:35:27;17.05;;;10.70;;
19889;SDS011;10107;51.198;6.824;2024-03-08T18:39:30;16.45;;;9.65;;
19889;SDS011;10107;51.198;6.824;2024-03-08T18:43:31;13.03;;;7.43;;
19889;SDS011;10107;51.198;6.824;2024-03-08T18:47:34;14.38;;;8.95;;
19889;SDS011;10107;51.198;6.824;2024-03-08T18:51:35;16.42;;;9.57;;
19889;SDS011;10107;51.198;6.824;2024-03-08T18:55:38;15.40;;;9.23;;
19889;SDS011;10107;51.198;6.824;2024-03-08T18:59:40;18.30;;;10.52;;
19889;SDS011;10107;51.198;6.824;2024-03-08T19:03:43;19.10;;;10.82;;
19889;SDS011;10107;51.198;6.824;2024-03-08T19:07:48;19.95;;;11.18;;
19889;SDS011;10107;51.198;6.824;2024-03-08T19:11:52;19.13;;;11.15;;
19889;SDS011;10107;51.198;6.824;2024-03-08T19:15:56;18.63;;;11.35;;
19889;SDS011;10107;51.198;6.824;2024-03-08T19:19:58;17.88;;;11.27;;
19889;SDS011;10107;51.198;6.824;2024-03-08T19:24:00;21.05;;;11.65;;
19889;SDS011;10107;51.198;6.824;2024-03-08T19:28:04;18.70;;;10.95;;
19889;SDS011;10107;51.198;6.824;2024-03-08T19:32:07;17.98;;;11.30;;
19889;SDS011;10107;51.198;6.824;2024-03-08T19:36:11;19.92;;;12.05;;
19889;SDS011;10107;51.198;6.824;2024-03-08T19:40:18;19.35;;;11.73;;
19889;SDS011;10107;51.198;6.824;2024-03-08T19:44:22;24.58;;;13.90;;
19889;SDS011;10107;51.198;6.824;2024-03-08T19:48:24;23.10;;;13.80;;
19889;SDS011;10107;51.198;6.824;2024-03-08T19:52:26;20.83;;;12.85;;
19889;SDS011;10107;51.198;6.824;2024-03-08T19:56:28;19.55;;;12.25;;
19889;SDS011;10107;51.198;6.824;2024-03-08T20:00:31;21.02;;;12.63;;
19889;SDS011;10107;51.198;6.824;2024-03-08T20:08:35;20.23;;;11.55;;
19889;SDS011;10107;51.198;6.824;2024-03-08T20:12:41;20.60;;;12.30;;
19889;SDS011;10107;51.198;6.824;2024-03-08T20:16:45;20.02;;;11.65;;
19889;SDS011;10107;51.198;6.824;2024-03-08T20:20:47;19.20;;;12.18;;
19889;SDS011;10107;51.198;6.824;2024-03-08T20:24:49;19.83;;;12.25;;
19889;SDS011;10107;51.198;6.824;2024-03-08T20:28:51;25.38;;;13.75;;
19889;SDS011;10107;51.198;6.824;2024-03-08T20:32:55;18.65;;;12.15;;
19889;SDS011;10107;51.198;6.824;2024-03-08T20:36:58;21.38;;;12.25;;
19889;SDS011;10107;51.198;6.824;2024-03-08T20:40:59;22.92;;;12.65;;
19889;SDS011;10107;51.198;6.824;2024-03-08T20:45:03;22.40;;;12.45;;
19889;SDS011;10107;51.198;6.824;2024-03-08T20:49:06;22.77;;;12.73;;
19889;SDS011;10107;51.198;6.824;2024-03-08T20:57:11;20.60;;;12.35;;
19889;SDS011;10107;51.198;6.824;2024-03-08T21:01:13;20.38;;;12.05;;
19889;SDS011;10107;51.198;6.824;2024-03-08T21:05:16;21.38;;;12.13;;
19889;SDS011;10107;51.198;6.824;2024-03-08T21:09:18;23.25;;;12.77;;
19889;SDS011;10107;51.198;6.824;2024-03-08T21:13:23;22.20;;;13.18;;
19889;SDS011;10107;51.198;6.824;2024-03-08T21:17:25;22.50;;;13.00;;
19889;SDS011;10107;51.198;6.824;2024-03-08T21:21:28;22.02;;;12.10;;
19889;SDS011;10107;51.198;6.824;2024-03-08T21:25:30;22.45;;;12.50;;
19889;SDS011;10107;51.198;6.824;2024-03-08T21:29:32;20.48;;;11.80;;
19889;SDS011;10107;51.198;6.824;2024-03-08T21:33:34;23.25;;;12.68;;
19889;SDS011;10107;51.198;6.824;2024-03-08T21:37:37;20.27;;;12.00;;
19889;SDS011;10107;51.198;6.824;2024-03-08T21:41:39;20.33;;;12.15;;
19889;SDS011;10107;51.198;6.824;2024-03-08T21:45:42;18.65;;;11.93;;
19889;SDS011;10107;51.198;6.824;2024-03-08T21:49:43;22.98;;;12.80;;
19889;SDS011;10107;51.198;6.824;2024-03-08T21:53:49;21.73;;;13.18;;
19889;SDS011;10107;51.198;6.824;2024-03-08T21:57:53;23.63;;;12.70;;
19889;SDS011;10107;51.198;6.824;2024-03-08T22:01:54;23.92;;;13.38;;
19889;SDS011;10107;51.198;6.824;2024-03-08T22:05:56;28.15;;;14.82;;
19889;SDS011;10107;51.198;6.824;2024-03-08T22:09:59;27.50;;;14.93;;
19889;SDS011;10107;51.198;6.824;2024-03-08T22:14:01;23.92;;;14.40;;
19889;SDS011;10107;51.198;6.824;2024-03-08T22:18:03;27.00;;;15.73;;
19889;SDS011;10107;51.198;6.824;2024-03-08T22:26:09;21.33;;;12.63;;
19889;SDS011;10107;51.198;6.824;2024-03-08T22:30:13;23.02;;;12.88;;
19889;SDS011;10107;51.198;6.824;2024-03-08T22:34:18;24.33;;;13.50;;
19889;SDS011;10107;51.198;6.824;2024-03-08T22:38:20;21.77;;;12.70;;
19889;SDS011;10107;51.198;6.824;2024-03-08T22:42:24;21.60;;;12.88;;
19889;SDS011;10107;51.198;6.824;2024-03-08T22:46:27;22.20;;;12.40;;
19889;SDS011;10107;51.198;6.824;2024-03-08T22:50:31;23.35;;;12.60;;
19889;SDS011;10107;51.198;6.824;2024-03-08T22:54:33;23.23;;;11.80;;
19889;SDS011;10107;51.198;6.824;2024-03-08T22:58:36;22.67;;;12.45;;
19889;SDS011;10107;51.198;6.824;2024-03-08T23:02:38;22.20;;;12.13;;
19889;SDS011;10107;51.198;6.824;2024-03-08T23:06:40;21.95;;;12.80;;
19889;SDS011;10107;51.198;6.824;2024-03-08T23:10:42;15.20;;;8.63;;
19889;SDS011;10107;51.198;6.824;2024-03-08T23:14:46;20.45;;;11.48;;
19889;SDS011;10107;51.198;6.824;2024-03-08T23:18:47;22.38;;;11.80;;
19889;SDS011;10107;51.198;6.824;2024-03-08T23:22:50;19.10;;;11.55;;
19889;SDS011;10107;51.198;6.824;2024-03-08T23:26:52;20.00;;;11.75;;
19889;SDS011;10107;51.198;6.824;2024-03-08T23:30:55;20.20;;;11.50;;
19889;SDS011;10107;51.198;6.824;2024-03-08T23:34:57;20.80;;;11.70;;
19889;SDS011;10107;51.198;6.824;2024-03-08T23:38:58;20.23;;;12.10;;
19889;SDS011;10107;51.198;6.824;2024-03-08T23:43:00;21.27;;;12.63;;
19889;SDS011;10107;51.198;6.824;2024-03-08T23:47:05;21.63;;;12.27;;
19889;SDS011;10107;51.198;6.824;2024-03-08T23:51:08;19.90;;;11.27;;
19889;SDS011;10107;51.198;6.824;2024-03-08T23:55:10;20.75;;;12.75;;
19889;SDS011;10107;51.198;6.824;2024-03-08T23:59:12;21.67;;;12.48;;
